createdAt,value
2023-03-02T00:03:40.964Z,1.18
2023-03-02T00:08:42.662Z,1.10
2023-03-02T00:13:43.486Z,1.12
2023-03-02T00:18:44.534Z,0.98
2023-03-02T00:23:45.272Z,1.04
2023-03-02T00:28:46.119Z,1.04
2023-03-02T00:33:46.858Z,0.91
2023-03-02T00:38:47.787Z,0.93
2023-03-02T00:43:49.624Z,0.99
2023-03-02T00:48:51.671Z,1.05
2023-03-02T00:53:52.452Z,1.01
2023-03-02T00:58:53.258Z,1.16
2023-03-02T01:03:54.408Z,1.13
2023-03-02T01:08:55.564Z,1.00
2023-03-02T01:13:57.300Z,0.99
2023-03-02T01:18:58.074Z,1.08
2023-03-02T01:23:58.863Z,1.10
2023-03-02T01:28:59.683Z,1.03
2023-03-02T01:34:00.946Z,1.06
2023-03-02T01:39:02.199Z,1.01
2023-03-02T01:44:03.095Z,1.02
2023-03-02T01:49:12.887Z,0.96
2023-03-02T01:54:29.972Z,0.96
2023-03-02T01:59:36.169Z,0.89
2023-03-02T02:04:40.894Z,0.99
2023-03-02T02:09:50.299Z,1.00
2023-03-02T02:14:53.153Z,0.88
2023-03-02T02:23:35.952Z,0.95
2023-03-02T02:28:47.465Z,0.89
2023-03-02T02:34:15.473Z,0.64
2023-03-02T02:39:33.329Z,0.45
2023-03-02T02:44:34.547Z,0.18
2023-03-02T02:49:38.432Z,-0.05
2023-03-02T02:54:39.640Z,-0.17
2023-03-02T02:59:45.674Z,-0.25
2023-03-02T03:04:47.448Z,-0.28
2023-03-02T03:09:56.660Z,-0.42
2023-03-02T03:14:58.815Z,-0.47
2023-03-02T03:20:05.360Z,-0.58
2023-03-02T03:25:08.845Z,-0.69
2023-03-02T03:30:11.927Z,-0.80
2023-03-02T03:35:13.421Z,-0.81
2023-03-02T03:40:14.620Z,-0.70
2023-03-02T03:45:17.035Z,-0.52
2023-03-02T03:50:18.253Z,-0.66
2023-03-02T03:55:19.342Z,-0.73
2023-03-02T04:00:21.850Z,-0.68
2023-03-02T04:05:26.638Z,-0.76
2023-03-02T04:10:28.916Z,-0.55
2023-03-02T04:15:30.647Z,-0.46
2023-03-02T04:20:32.891Z,-0.37
2023-03-02T04:25:34.102Z,-0.26
2023-03-02T04:30:40.794Z,-0.35
2023-03-02T04:35:41.867Z,-0.46
2023-03-02T04:40:45.244Z,-0.52
2023-03-02T04:45:46.109Z,-0.67
2023-03-02T04:50:47.224Z,-0.47
2023-03-02T04:55:48.345Z,-0.55
2023-03-02T05:00:49.111Z,-0.66
2023-03-02T05:05:49.836Z,-0.73
2023-03-02T05:10:50.604Z,-0.87
2023-03-02T05:15:52.186Z,-0.76
2023-03-02T05:20:54.107Z,-0.85
2023-03-02T05:25:55.696Z,-0.84
2023-03-02T05:30:56.437Z,-0.87
2023-03-02T05:35:57.427Z,-0.70
2023-03-02T05:40:58.263Z,-0.53
2023-03-02T05:45:59.727Z,-0.43
2023-03-02T05:51:00.496Z,-0.35
2023-03-02T05:56:01.363Z,-0.08
2023-03-02T06:01:07.618Z,-0.14
2023-03-02T06:06:13.071Z,0.01
2023-03-02T06:11:13.863Z,0.03
2023-03-02T06:16:14.855Z,0.12
2023-03-02T06:21:15.645Z,0.23
2023-03-02T06:26:16.423Z,0.42
2023-03-02T06:31:17.182Z,0.55
2023-03-02T06:36:18.172Z,0.66
2023-03-02T06:41:18.975Z,1.00
2023-03-02T06:46:19.914Z,1.03
2023-03-02T06:51:20.851Z,1.00
2023-03-02T06:56:21.653Z,0.95
2023-03-02T07:01:22.462Z,1.02
2023-03-02T07:06:23.354Z,1.40
2023-03-02T07:11:24.392Z,1.71
2023-03-02T07:16:25.412Z,1.85
2023-03-02T07:21:26.482Z,2.00
2023-03-02T07:26:27.224Z,2.26
2023-03-02T07:31:28.446Z,2.37
2023-03-02T07:36:29.353Z,2.45
2023-03-02T07:41:30.334Z,2.55
2023-03-02T07:46:31.410Z,2.66
2023-03-02T07:51:32.832Z,2.72
2023-03-02T07:56:33.867Z,2.76
2023-03-02T08:01:35.182Z,2.72
2023-03-02T08:06:36.567Z,2.98
2023-03-02T08:11:37.328Z,3.25
2023-03-02T08:16:39.148Z,3.24
2023-03-02T08:21:40.072Z,3.22
2023-03-02T08:26:40.839Z,3.22
2023-03-02T08:31:41.628Z,3.65
2023-03-02T08:36:43.265Z,3.84
2023-03-02T08:41:44.421Z,3.61
2023-03-02T08:46:45.734Z,4.05
2023-03-02T08:51:52.550Z,4.06
2023-03-02T08:56:53.488Z,3.91
2023-03-02T09:01:54.356Z,3.67
2023-03-02T09:06:55.117Z,4.26
2023-03-02T09:11:56.088Z,4.47
2023-03-02T09:16:57.145Z,4.07
2023-03-02T09:21:58.819Z,4.19
2023-03-02T09:26:59.566Z,4.85
2023-03-02T09:32:01.087Z,4.76
2023-03-02T09:37:08.325Z,4.74
2023-03-02T09:42:47.315Z,4.81
2023-03-02T09:51:36.805Z,5.23
2023-03-02T09:56:53.785Z,5.29
2023-03-02T10:02:13.311Z,5.66
2023-03-02T10:07:25.627Z,6.06
2023-03-02T10:13:42.856Z,6.66
2023-03-02T10:18:53.784Z,6.64
2023-03-02T10:24:23.559Z,6.80
2023-03-02T10:29:43.959Z,6.61
2023-03-02T10:34:45.050Z,6.23
2023-03-02T10:39:46.092Z,6.78
2023-03-02T10:44:53.721Z,6.30
2023-03-02T10:49:56.816Z,7.08
2023-03-02T10:55:03.033Z,7.49
2023-03-02T11:00:22.241Z,7.51
2023-03-02T11:05:29.700Z,7.52
2023-03-02T11:10:33.623Z,7.90
2023-03-02T11:15:40.115Z,8.01
2023-03-02T11:20:45.015Z,7.57
2023-03-02T11:25:53.364Z,7.33
2023-03-02T11:30:57.103Z,7.80
2023-03-02T11:37:12.305Z,7.54
2023-03-02T11:42:47.311Z,8.01
2023-03-02T11:48:05.679Z,7.62
2023-03-02T11:53:14.989Z,8.00
2023-03-02T11:58:25.955Z,7.97
2023-03-02T12:03:45.316Z,8.39
2023-03-02T12:08:49.759Z,8.85
2023-03-02T12:14:27.652Z,9.25
2023-03-02T12:19:39.472Z,9.52
2023-03-02T12:24:43.582Z,9.41
2023-03-02T12:30:26.152Z,9.13
2023-03-02T12:35:29.731Z,10.52
2023-03-02T12:40:58.406Z,11.41
2023-03-02T12:46:31.590Z,11.06
2023-03-02T12:51:58.242Z,11.00
2023-03-02T12:57:19.552Z,11.16
2023-03-02T13:02:23.274Z,11.21
2023-03-02T13:07:34.243Z,11.28
2023-03-02T13:12:36.953Z,11.30
2023-03-02T13:17:37.716Z,11.79
2023-03-02T13:22:39.356Z,12.33
2023-03-02T13:27:52.030Z,12.06
2023-03-02T13:33:00.068Z,11.55
2023-03-02T13:38:19.692Z,12.54
2023-03-02T13:43:33.679Z,11.61
2023-03-02T13:48:34.515Z,12.08
2023-03-02T13:53:37.197Z,12.67
2023-03-02T13:58:38.921Z,12.26
2023-03-02T14:03:39.831Z,12.04
2023-03-02T14:08:40.626Z,12.27
2023-03-02T14:13:46.837Z,11.98
2023-03-02T14:18:50.316Z,12.13
2023-03-02T14:23:52.205Z,12.42
2023-03-02T14:29:04.672Z,12.50
2023-03-02T14:34:11.654Z,13.15
2023-03-02T14:39:27.908Z,12.80
2023-03-02T14:44:28.772Z,11.71
2023-03-02T14:49:29.565Z,11.54
2023-03-02T14:54:55.833Z,12.03
2023-03-02T14:59:59.172Z,12.14
2023-03-02T15:04:59.913Z,12.03
2023-03-02T15:10:01.135Z,11.60
2023-03-02T15:15:01.991Z,11.28
2023-03-02T15:20:03.512Z,11.32
2023-03-02T15:25:05.552Z,11.08
2023-03-02T15:30:07.527Z,10.85
2023-03-02T15:35:09.227Z,10.59
2023-03-02T15:40:10.906Z,10.52
2023-03-02T15:45:11.648Z,10.63
2023-03-02T15:50:12.468Z,10.40
2023-03-02T15:55:15.851Z,10.36
2023-03-02T16:00:17.733Z,10.20
2023-03-02T16:05:18.561Z,9.90
2023-03-02T16:10:20.367Z,9.72
2023-03-02T16:15:21.138Z,9.53
2023-03-02T16:20:21.896Z,9.49
2023-03-02T16:25:24.655Z,9.24
2023-03-02T16:30:25.466Z,8.85
2023-03-02T16:35:28.136Z,8.60
2023-03-02T16:40:28.992Z,8.51
2023-03-02T16:45:29.816Z,8.30
2023-03-02T16:50:31.085Z,7.89
2023-03-02T16:55:31.955Z,7.73
2023-03-02T17:00:32.868Z,7.75
2023-03-02T17:05:33.729Z,7.55
2023-03-02T17:10:34.508Z,7.54
2023-03-02T17:15:35.342Z,7.33
2023-03-02T17:20:36.660Z,7.17
2023-03-02T17:25:38.096Z,6.97
2023-03-02T17:30:43.313Z,6.72
2023-03-02T17:35:45.346Z,6.74
2023-03-02T17:40:46.342Z,6.53
2023-03-02T17:45:47.149Z,6.39
2023-03-02T17:50:47.872Z,6.29
2023-03-02T17:55:48.648Z,6.05
2023-03-02T18:00:49.470Z,6.16
2023-03-02T18:05:50.269Z,6.09
2023-03-02T18:10:51.273Z,6.12
2023-03-02T18:15:52.112Z,6.07
2023-03-02T18:20:54.278Z,6.06
2023-03-02T18:25:55.315Z,6.01
2023-03-02T18:30:56.349Z,6.02
2023-03-02T18:35:57.584Z,5.98
2023-03-02T18:41:02.070Z,5.91
2023-03-02T18:46:04.428Z,5.73
2023-03-02T18:51:05.318Z,5.63
2023-03-02T18:56:06.187Z,5.66
2023-03-02T19:01:07.959Z,5.54
2023-03-02T19:06:08.797Z,5.57
2023-03-02T19:11:10.988Z,5.58
2023-03-02T19:16:12.492Z,5.56
2023-03-02T19:21:13.535Z,5.45
2023-03-02T19:26:14.484Z,5.41
2023-03-02T19:31:15.468Z,5.42
2023-03-02T19:36:16.371Z,5.55
2023-03-02T19:41:19.038Z,5.38
2023-03-02T19:46:19.884Z,5.20
2023-03-02T19:51:20.704Z,5.23
2023-03-02T19:56:21.458Z,5.11
2023-03-02T20:01:24.232Z,4.89
2023-03-02T20:06:31.612Z,4.45
2023-03-02T20:11:32.548Z,4.36
2023-03-02T20:16:34.469Z,4.51
2023-03-02T20:21:37.108Z,4.56
2023-03-02T20:26:37.896Z,4.50
2023-03-02T20:31:39.423Z,4.46
2023-03-02T20:36:40.168Z,4.26
2023-03-02T20:41:42.134Z,4.06
2023-03-02T20:46:47.964Z,4.11
2023-03-02T20:51:53.741Z,3.96
2023-03-02T20:56:54.947Z,3.89
2023-03-02T21:01:55.752Z,3.79
2023-03-02T21:06:57.245Z,3.69
2023-03-02T21:11:58.072Z,3.46
2023-03-02T21:16:59.686Z,3.87
2023-03-02T21:22:00.974Z,3.94
2023-03-02T21:27:02.065Z,3.94
2023-03-02T21:32:05.292Z,3.80
2023-03-02T21:37:06.110Z,3.66
2023-03-02T21:42:07.212Z,3.47
2023-03-02T21:47:08.401Z,3.30
2023-03-02T21:52:09.159Z,3.28
2023-03-02T21:57:11.984Z,3.24
2023-03-02T22:02:13.044Z,3.20
2023-03-02T22:07:13.785Z,3.15
2023-03-02T22:12:15.342Z,3.25
2023-03-02T22:17:19.565Z,3.29
2023-03-02T22:22:29.628Z,3.16
2023-03-02T22:27:31.284Z,3.42
2023-03-02T22:32:37.610Z,3.09
2023-03-02T22:37:38.674Z,2.83
2023-03-02T22:42:39.529Z,2.67
2023-03-02T22:47:41.662Z,2.75
2023-03-02T22:52:44.475Z,2.90
2023-03-02T22:57:45.265Z,3.01
2023-03-02T23:02:46.357Z,3.01
2023-03-02T23:07:47.078Z,2.90
2023-03-02T23:12:47.905Z,3.09
2023-03-02T23:17:48.677Z,2.80
2023-03-02T23:22:49.644Z,2.76
2023-03-02T23:27:53.030Z,2.88
2023-03-02T23:32:53.876Z,3.00
2023-03-02T23:37:54.823Z,2.92
2023-03-02T23:42:55.587Z,2.80
2023-03-02T23:47:57.037Z,2.82
2023-03-02T23:52:57.790Z,2.70
2023-03-02T23:57:58.577Z,2.68
